createdAt,value
2023-04-30T00:00:11.784Z,68.73
2023-04-30T00:06:07.287Z,70.17
2023-04-30T00:12:01.720Z,70.69
2023-04-30T00:14:31.717Z,71.03
2023-04-30T00:17:01.839Z,71.73
2023-04-30T00:19:33.082Z,70.51
2023-04-30T00:22:14.938Z,70.98
2023-04-30T00:27:40.773Z,69.69
2023-04-30T00:36:12.029Z,71.42
2023-04-30T00:38:42.969Z,71.71
2023-04-30T00:41:38.051Z,70.96
2023-04-30T00:44:11.703Z,70.30
2023-04-30T00:46:42.411Z,70.46
2023-04-30T00:55:16.606Z,68.11
2023-04-30T00:58:06.541Z,68.88
2023-04-30T01:00:39.356Z,68.32
2023-04-30T01:06:07.208Z,68.97
2023-04-30T01:08:39.049Z,66.66
2023-04-30T01:18:26.652Z,66.36
2023-04-30T01:21:10.902Z,67.80
2023-04-30T01:30:03.424Z,68.80
2023-04-30T01:32:37.072Z,66.63
2023-04-30T01:35:10.260Z,66.05
2023-04-30T01:38:06.793Z,64.35
2023-04-30T01:41:21.975Z,67.68
2023-04-30T01:44:24.551Z,65.40
2023-04-30T01:47:28.068Z,65.75
2023-04-30T01:50:41.586Z,68.59
2023-04-30T01:53:50.597Z,69.13
2023-04-30T01:56:39.330Z,67.84
2023-04-30T02:02:39.143Z,66.63
2023-04-30T02:05:12.988Z,67.08
2023-04-30T02:08:13.255Z,65.03
2023-04-30T02:11:10.139Z,66.68
2023-04-30T02:13:53.589Z,66.50
2023-04-30T02:16:30.167Z,64.07
2023-04-30T02:19:03.054Z,62.72
2023-04-30T02:21:36.158Z,62.65
2023-04-30T02:24:15.993Z,61.19
2023-04-30T02:26:58.830Z,62.31
2023-04-30T02:29:42.605Z,62.96
2023-04-30T02:32:32.281Z,63.32
2023-04-30T02:35:11.901Z,64.78
2023-04-30T02:38:06.405Z,63.63
2023-04-30T02:40:37.786Z,64.08
2023-04-30T02:46:11.916Z,65.56
2023-04-30T02:49:09.686Z,64.85
2023-04-30T02:51:50.432Z,64.54
2023-04-30T02:54:26.157Z,64.84
2023-04-30T02:57:04.452Z,63.96
2023-04-30T02:59:46.376Z,64.60
2023-04-30T03:02:22.045Z,65.52
2023-04-30T03:04:51.685Z,65.07
2023-04-30T03:07:20.861Z,64.11
2023-04-30T03:10:04.287Z,62.93
2023-04-30T03:12:34.969Z,62.40
2023-04-30T03:15:03.838Z,59.31
2023-04-30T03:24:00.067Z,60.11
2023-04-30T03:26:36.651Z,63.15
2023-04-30T03:29:05.857Z,63.32
2023-04-30T03:31:38.220Z,64.31
2023-04-30T03:34:07.643Z,63.67
2023-04-30T03:36:37.017Z,62.29
2023-04-30T03:44:41.420Z,66.42
2023-04-30T03:47:14.011Z,66.50
2023-04-30T03:50:12.872Z,66.04
2023-04-30T03:52:41.794Z,66.24
2023-04-30T03:55:12.009Z,64.59
2023-04-30T03:57:43.753Z,64.89
2023-04-30T04:00:19.230Z,64.10
2023-04-30T04:02:54.724Z,62.47
2023-04-30T04:05:23.279Z,61.09
2023-04-30T04:07:52.235Z,62.93
2023-04-30T04:10:20.989Z,60.55
2023-04-30T04:12:50.422Z,58.13
2023-04-30T04:15:19.124Z,55.49
2023-04-30T04:17:52.448Z,53.83
2023-04-30T04:20:21.355Z,53.21
2023-04-30T04:22:58.321Z,54.81
2023-04-30T04:25:59.192Z,48.55
2023-04-30T04:28:28.855Z,47.96
2023-04-30T04:30:57.684Z,47.57
2023-04-30T04:33:26.779Z,46.57
2023-04-30T04:35:56.418Z,46.58
2023-04-30T04:38:25.836Z,45.90
2023-04-30T04:40:58.426Z,44.88
2023-04-30T04:43:27.402Z,43.39
2023-04-30T04:45:56.542Z,43.59
2023-04-30T04:51:04.457Z,44.66
2023-04-30T04:53:34.863Z,43.15
2023-04-30T04:56:04.347Z,41.77
2023-04-30T04:58:33.900Z,42.00
2023-04-30T05:01:03.873Z,41.59
2023-04-30T05:03:33.743Z,41.81
2023-04-30T05:06:04.848Z,42.11
2023-04-30T05:08:33.803Z,41.15
2023-04-30T05:11:02.821Z,41.02
2023-04-30T05:13:32.404Z,40.78
2023-04-30T05:16:01.743Z,41.33
2023-04-30T05:18:31.274Z,40.87
2023-04-30T05:21:00.010Z,39.21
2023-04-30T05:23:29.490Z,39.34
2023-04-30T05:25:58.566Z,40.23
2023-04-30T05:28:27.526Z,39.94
2023-04-30T05:30:56.928Z,39.95
2023-04-30T05:33:25.944Z,38.52
2023-04-30T05:35:54.813Z,39.49
2023-04-30T05:38:25.162Z,39.34
2023-04-30T05:40:53.973Z,38.55
2023-04-30T05:43:22.745Z,39.34
2023-04-30T05:45:51.612Z,38.39
2023-04-30T05:48:20.810Z,38.75
2023-04-30T05:51:05.019Z,38.18
2023-04-30T05:53:33.832Z,37.79
2023-04-30T05:56:03.023Z,37.82
2023-04-30T05:58:31.911Z,36.96
2023-04-30T06:01:01.065Z,36.62
2023-04-30T06:03:30.033Z,37.02
2023-04-30T06:05:59.705Z,35.79
2023-04-30T06:08:28.990Z,36.34
2023-04-30T06:10:57.931Z,37.02
2023-04-30T06:13:27.298Z,36.29
2023-04-30T06:15:56.112Z,35.89
2023-04-30T06:18:25.144Z,35.24
2023-04-30T06:20:53.997Z,36.27
2023-04-30T06:23:23.523Z,35.67
2023-04-30T06:25:52.170Z,34.96
2023-04-30T06:28:25.159Z,34.07
2023-04-30T06:30:56.128Z,34.68
2023-04-30T06:33:25.251Z,35.94
2023-04-30T06:35:56.306Z,36.09
2023-04-30T06:38:35.000Z,37.20
2023-04-30T06:41:04.266Z,38.84
2023-04-30T06:43:42.884Z,38.90
2023-04-30T06:46:18.977Z,38.90
2023-04-30T06:48:49.715Z,37.37
2023-04-30T06:51:18.808Z,37.41
2023-04-30T06:54:20.188Z,36.88
2023-04-30T06:57:25.508Z,37.68
2023-04-30T06:59:55.645Z,37.88
2023-04-30T07:02:25.468Z,38.05
2023-04-30T07:04:55.408Z,37.57
2023-04-30T07:07:24.644Z,36.24
2023-04-30T07:09:54.559Z,36.70
2023-04-30T07:12:24.003Z,35.63
2023-04-30T07:14:53.007Z,36.84
2023-04-30T07:17:21.949Z,37.08
2023-04-30T07:22:41.481Z,36.60
2023-04-30T07:28:33.392Z,35.48
2023-04-30T07:31:02.999Z,35.28
2023-04-30T07:33:32.328Z,35.09
2023-04-30T07:36:01.163Z,35.09
2023-04-30T07:41:43.825Z,34.09
2023-04-30T07:44:13.623Z,34.29
2023-04-30T07:46:51.499Z,34.08
2023-04-30T07:49:20.838Z,34.38
2023-04-30T07:51:50.027Z,33.46
2023-04-30T07:54:19.771Z,32.90
2023-04-30T07:56:50.020Z,32.55
2023-04-30T07:59:19.066Z,32.12
2023-04-30T08:01:48.810Z,31.48
2023-04-30T08:04:19.828Z,31.71
2023-04-30T08:06:50.778Z,30.73
2023-04-30T08:09:22.356Z,30.82
2023-04-30T08:11:51.422Z,30.74
2023-04-30T08:14:20.474Z,30.32
2023-04-30T08:16:53.556Z,30.24
2023-04-30T08:19:22.735Z,29.63
2023-04-30T08:21:51.869Z,29.74
2023-04-30T08:24:21.457Z,29.52
2023-04-30T08:26:50.958Z,29.50
2023-04-30T08:29:21.005Z,29.92
2023-04-30T08:31:50.823Z,29.31
2023-04-30T08:34:19.981Z,29.58
2023-04-30T08:36:48.929Z,30.33
2023-04-30T08:39:17.972Z,30.38
2023-04-30T08:41:53.677Z,30.69
2023-04-30T08:44:24.204Z,30.42
2023-04-30T08:46:59.266Z,31.22
2023-04-30T08:49:29.231Z,30.82
2023-04-30T08:52:01.693Z,31.87
2023-04-30T08:54:35.980Z,31.40
2023-04-30T08:57:05.717Z,31.44
2023-04-30T08:59:34.603Z,32.52
2023-04-30T09:02:04.014Z,31.11
2023-04-30T09:04:33.105Z,30.91
2023-04-30T09:07:04.426Z,30.64
2023-04-30T09:09:40.219Z,30.68
2023-04-30T09:12:23.976Z,30.78
2023-04-30T09:15:04.702Z,30.63
2023-04-30T09:17:35.308Z,30.63
2023-04-30T09:20:11.248Z,30.23
2023-04-30T09:22:42.094Z,30.44
2023-04-30T09:25:12.469Z,30.05
2023-04-30T09:27:42.502Z,30.64
2023-04-30T09:30:31.462Z,30.61
2023-04-30T09:33:00.650Z,30.45
2023-04-30T09:35:38.205Z,30.60
2023-04-30T09:38:07.931Z,30.05
2023-04-30T09:40:38.619Z,30.21
2023-04-30T09:43:08.648Z,30.38
2023-04-30T09:49:04.518Z,30.54
2023-04-30T09:51:33.440Z,30.03
2023-04-30T09:54:05.893Z,30.54
2023-04-30T09:56:40.293Z,30.50
2023-04-30T09:59:11.046Z,29.92
2023-04-30T10:01:41.079Z,29.35
2023-04-30T10:04:11.706Z,29.31
2023-04-30T10:06:44.660Z,29.81
2023-04-30T10:09:17.181Z,28.39
2023-04-30T10:11:48.444Z,28.33
2023-04-30T10:14:25.118Z,29.23
2023-04-30T10:17:05.331Z,29.19
2023-04-30T10:19:42.819Z,29.02
2023-04-30T10:22:13.002Z,29.02
2023-04-30T10:24:45.716Z,29.29
2023-04-30T10:27:15.812Z,29.53
2023-04-30T10:29:53.302Z,29.47
2023-04-30T10:32:25.147Z,28.86
2023-04-30T10:35:09.802Z,29.19
2023-04-30T10:37:50.654Z,28.66
2023-04-30T10:43:08.686Z,30.17
2023-04-30T10:45:39.223Z,29.29
2023-04-30T10:48:09.011Z,30.10
2023-04-30T10:50:46.361Z,29.53
2023-04-30T10:56:32.455Z,29.82
2023-04-30T10:59:03.380Z,30.48
2023-04-30T11:01:32.776Z,29.28
2023-04-30T11:04:09.818Z,29.54
2023-04-30T11:07:04.808Z,28.91
2023-04-30T11:09:45.027Z,29.49
2023-04-30T11:12:30.748Z,29.44
2023-04-30T11:15:17.786Z,29.37
2023-04-30T11:17:51.374Z,30.22
2023-04-30T11:20:26.612Z,29.99
2023-04-30T11:23:37.912Z,29.85
2023-04-30T11:26:09.599Z,29.81
2023-04-30T11:28:39.447Z,29.82
2023-04-30T11:31:08.516Z,30.70
2023-04-30T11:33:37.600Z,31.68
2023-04-30T11:36:07.019Z,31.24
2023-04-30T11:38:38.198Z,32.47
2023-04-30T11:41:07.235Z,32.34
2023-04-30T11:43:42.458Z,33.34
2023-04-30T11:46:20.766Z,31.32
2023-04-30T11:51:32.214Z,32.08
2023-04-30T11:54:01.507Z,31.99
2023-04-30T11:56:30.595Z,31.59
2023-04-30T11:58:59.404Z,32.35
2023-04-30T12:01:29.523Z,31.50
2023-04-30T12:03:58.858Z,31.95
2023-04-30T12:06:30.033Z,32.02
2023-04-30T12:09:02.586Z,32.11
2023-04-30T12:11:33.120Z,32.02
2023-04-30T12:14:08.450Z,31.85
2023-04-30T12:16:41.708Z,31.38
2023-04-30T12:19:10.723Z,32.21
2023-04-30T12:21:41.088Z,31.94
2023-04-30T12:24:13.042Z,32.03
2023-04-30T12:26:43.419Z,31.90
2023-04-30T12:29:15.496Z,32.34
2023-04-30T12:31:45.637Z,32.27
2023-04-30T12:34:16.262Z,32.41
2023-04-30T12:36:45.220Z,32.58
2023-04-30T12:39:17.071Z,33.63
2023-04-30T12:41:49.972Z,33.37
2023-04-30T12:44:26.207Z,34.26
2023-04-30T12:47:01.446Z,34.17
2023-04-30T12:49:36.292Z,34.51
2023-04-30T12:52:12.257Z,34.48
2023-04-30T12:54:42.022Z,34.64
2023-04-30T12:57:13.894Z,35.23
2023-04-30T13:00:06.609Z,35.48
2023-04-30T13:02:35.681Z,35.66
2023-04-30T13:05:04.901Z,35.83
2023-04-30T13:07:40.927Z,35.61
2023-04-30T13:10:10.587Z,35.54
2023-04-30T13:12:39.421Z,35.88
2023-04-30T13:15:09.009Z,36.00
2023-04-30T13:17:37.994Z,36.30
2023-04-30T13:20:07.656Z,36.13
2023-04-30T13:22:36.527Z,36.38
2023-04-30T13:25:05.589Z,36.35
2023-04-30T13:27:34.444Z,36.25
2023-04-30T13:30:07.662Z,36.05
2023-04-30T13:32:36.563Z,36.38
2023-04-30T13:35:05.775Z,36.44
2023-04-30T13:37:34.810Z,36.79
2023-04-30T13:40:04.829Z,36.85
2023-04-30T13:42:34.017Z,37.71
2023-04-30T13:45:26.901Z,37.64
2023-04-30T13:47:55.750Z,38.19
2023-04-30T13:50:24.639Z,38.72
2023-04-30T13:52:53.611Z,39.09
2023-04-30T13:55:23.137Z,39.14
2023-04-30T13:57:52.196Z,39.95
2023-04-30T14:00:23.236Z,40.31
2023-04-30T14:02:53.072Z,39.99
2023-04-30T14:05:22.409Z,40.46
2023-04-30T14:07:51.920Z,40.93
2023-04-30T14:10:21.230Z,40.83
2023-04-30T14:12:52.144Z,40.90
2023-04-30T14:15:22.276Z,40.87
2023-04-30T14:17:54.074Z,40.77
2023-04-30T14:20:26.381Z,40.53
2023-04-30T14:23:05.002Z,40.75
2023-04-30T14:25:33.860Z,40.97
2023-04-30T14:28:02.809Z,40.95
2023-04-30T14:30:32.396Z,40.54
2023-04-30T14:33:01.527Z,40.85
2023-04-30T14:35:30.899Z,40.46
2023-04-30T14:37:59.632Z,40.58
2023-04-30T14:40:28.689Z,40.94
2023-04-30T14:42:57.502Z,40.55
2023-04-30T14:45:29.060Z,40.26
2023-04-30T14:47:58.143Z,39.67
2023-04-30T14:50:27.209Z,39.69
2023-04-30T14:52:56.258Z,40.02
2023-04-30T14:55:25.893Z,40.00
2023-04-30T14:57:57.502Z,40.45
2023-04-30T15:00:26.519Z,40.44
2023-04-30T15:02:55.439Z,40.28
2023-04-30T15:05:27.093Z,40.15
2023-04-30T15:07:58.291Z,39.92
2023-04-30T15:10:28.574Z,40.40
2023-04-30T15:12:57.386Z,40.65
2023-04-30T15:15:29.276Z,40.73
2023-04-30T15:17:59.401Z,41.08
2023-04-30T15:20:38.311Z,41.54
2023-04-30T15:23:09.814Z,41.68
2023-04-30T15:25:39.093Z,41.35
2023-04-30T15:28:07.965Z,41.07
2023-04-30T15:30:37.216Z,41.59
2023-04-30T15:33:06.193Z,40.88
2023-04-30T15:35:35.458Z,40.38
2023-04-30T15:38:04.215Z,40.61
2023-04-30T15:40:33.606Z,40.77
2023-04-30T15:43:02.386Z,40.25
2023-04-30T15:45:31.407Z,40.85
2023-04-30T15:48:01.352Z,41.26
2023-04-30T15:50:30.761Z,41.30
2023-04-30T15:52:59.668Z,41.63
2023-04-30T15:55:28.589Z,41.63
2023-04-30T15:57:57.551Z,41.77
2023-04-30T16:00:28.144Z,42.19
2023-04-30T16:02:57.476Z,42.16
2023-04-30T16:05:26.979Z,42.72
2023-04-30T16:07:57.628Z,42.65
2023-04-30T16:10:29.210Z,43.42
2023-04-30T16:12:59.943Z,43.69
2023-04-30T16:15:30.956Z,43.79
2023-04-30T16:18:01.893Z,44.33
2023-04-30T16:20:32.346Z,44.89
2023-04-30T16:23:01.375Z,44.82
2023-04-30T16:25:30.531Z,45.73
2023-04-30T16:27:59.969Z,46.20
2023-04-30T16:30:54.047Z,46.25
2023-04-30T16:33:26.196Z,46.25
2023-04-30T16:35:57.362Z,46.75
2023-04-30T16:38:26.245Z,47.26
2023-04-30T16:40:55.521Z,46.78
2023-04-30T16:43:27.988Z,46.99
2023-04-30T16:45:57.258Z,47.23
2023-04-30T16:48:26.484Z,47.76
2023-04-30T16:50:58.687Z,47.56
2023-04-30T16:53:30.018Z,47.98
2023-04-30T16:56:00.184Z,47.54
2023-04-30T17:01:37.302Z,48.11
2023-04-30T17:04:06.135Z,48.44
2023-04-30T17:06:36.355Z,48.23
2023-04-30T17:09:06.035Z,48.26
2023-04-30T17:11:35.456Z,47.64
2023-04-30T17:14:04.204Z,47.42
2023-04-30T17:16:33.307Z,47.68
2023-04-30T17:19:02.141Z,48.14
2023-04-30T17:21:31.191Z,47.55
2023-04-30T17:23:59.908Z,47.52
2023-04-30T17:26:28.930Z,47.71
2023-04-30T17:28:57.638Z,47.97
2023-04-30T17:31:27.921Z,47.74
2023-04-30T17:33:57.418Z,47.09
2023-04-30T17:36:26.359Z,47.34
2023-04-30T17:38:57.273Z,47.26
2023-04-30T17:41:27.109Z,47.12
2023-04-30T17:43:59.929Z,46.90
2023-04-30T17:46:28.803Z,47.39
2023-04-30T17:48:57.904Z,47.22
2023-04-30T17:52:00.270Z,46.91
2023-04-30T17:54:31.851Z,47.35
2023-04-30T17:57:01.245Z,47.68
2023-04-30T17:59:31.190Z,47.75
2023-04-30T18:02:00.464Z,48.01
2023-04-30T18:04:29.566Z,48.51
2023-04-30T18:06:59.590Z,48.48
2023-04-30T18:09:28.963Z,47.80
2023-04-30T18:15:09.497Z,48.84
2023-04-30T18:17:38.511Z,48.52
2023-04-30T18:20:09.036Z,47.19
2023-04-30T18:22:43.977Z,46.93
2023-04-30T18:25:14.567Z,45.54
2023-04-30T18:27:44.797Z,46.13
2023-04-30T18:30:14.317Z,46.72
2023-04-30T18:32:45.116Z,47.32
2023-04-30T18:35:14.255Z,47.50
2023-04-30T18:37:43.085Z,47.78
2023-04-30T18:40:12.490Z,48.51
2023-04-30T18:42:41.348Z,49.05
2023-04-30T18:45:12.420Z,47.85
2023-04-30T18:47:41.519Z,47.21
2023-04-30T18:50:14.390Z,47.41
2023-04-30T18:52:43.230Z,47.12
2023-04-30T18:55:14.746Z,48.27
2023-04-30T18:57:44.117Z,49.01
2023-04-30T19:00:15.182Z,49.17
2023-04-30T19:02:44.973Z,47.63
2023-04-30T19:05:15.791Z,48.21
2023-04-30T19:07:44.703Z,48.62
2023-04-30T19:10:13.726Z,48.66
2023-04-30T19:12:45.030Z,48.56
2023-04-30T19:15:15.778Z,48.70
2023-04-30T19:17:45.698Z,48.58
2023-04-30T19:20:14.623Z,50.04
2023-04-30T19:22:44.632Z,50.34
2023-04-30T19:25:13.650Z,50.75
2023-04-30T19:27:42.756Z,51.89
2023-04-30T19:30:12.668Z,52.44
2023-04-30T19:32:41.531Z,52.24
2023-04-30T19:35:10.821Z,52.56
2023-04-30T19:37:39.646Z,52.66
2023-04-30T19:40:40.778Z,52.54
2023-04-30T19:46:19.368Z,53.99
2023-04-30T19:48:51.544Z,54.39
2023-04-30T19:51:44.796Z,55.10
2023-04-30T19:54:16.024Z,56.44
2023-04-30T19:56:45.482Z,58.28
2023-04-30T19:59:15.054Z,58.90
2023-04-30T20:01:44.195Z,58.19
2023-04-30T20:04:14.227Z,57.46
2023-04-30T20:06:43.804Z,56.92
2023-04-30T20:09:13.426Z,56.65
2023-04-30T20:11:43.221Z,57.23
2023-04-30T20:14:12.902Z,56.44
2023-04-30T20:16:42.537Z,56.15
2023-04-30T20:19:13.945Z,55.54
2023-04-30T20:21:43.895Z,55.99
2023-04-30T20:24:14.713Z,56.11
2023-04-30T20:26:45.795Z,56.07
2023-04-30T20:29:16.658Z,55.37
2023-04-30T20:31:48.996Z,55.18
2023-04-30T20:34:18.966Z,55.86
2023-04-30T20:36:48.909Z,57.21
2023-04-30T20:39:20.050Z,58.21
2023-04-30T20:41:50.184Z,60.45
2023-04-30T20:44:20.276Z,62.21
2023-04-30T20:46:59.634Z,61.88
2023-04-30T20:49:51.413Z,63.05
2023-04-30T20:52:28.087Z,64.22
2023-04-30T20:55:18.837Z,65.25
2023-04-30T20:58:10.310Z,64.76
2023-04-30T21:00:41.596Z,65.27
2023-04-30T21:03:11.841Z,64.67
2023-04-30T21:05:42.240Z,64.65
2023-04-30T21:08:12.526Z,63.90
2023-04-30T21:10:43.360Z,63.18
2023-04-30T21:13:14.234Z,63.73
2023-04-30T21:15:44.596Z,63.35
2023-04-30T21:18:15.402Z,64.33
2023-04-30T21:20:45.366Z,62.42
2023-04-30T21:23:16.435Z,62.32
2023-04-30T21:25:47.307Z,62.95
2023-04-30T21:28:17.923Z,63.04
2023-04-30T21:31:19.421Z,62.69
2023-04-30T21:33:49.913Z,63.17
2023-04-30T21:36:27.329Z,63.47
2023-04-30T21:39:31.606Z,63.13
2023-04-30T21:42:06.034Z,63.41
2023-04-30T21:44:37.600Z,63.44
2023-04-30T21:47:10.292Z,62.96
2023-04-30T21:49:49.726Z,62.43
2023-04-30T21:52:20.819Z,62.97
2023-04-30T21:54:52.060Z,62.24
2023-04-30T21:58:07.537Z,61.94
2023-04-30T22:00:38.242Z,61.90
2023-04-30T22:03:08.490Z,62.47
2023-04-30T22:06:10.290Z,61.81
2023-04-30T22:08:43.884Z,62.02
2023-04-30T22:11:13.992Z,62.25
2023-04-30T22:13:43.667Z,61.52
2023-04-30T22:16:14.662Z,62.15
2023-04-30T22:18:50.044Z,61.62
2023-04-30T22:21:20.823Z,61.48
2023-04-30T22:23:50.824Z,62.12
2023-04-30T22:29:40.286Z,62.33
2023-04-30T22:32:13.312Z,62.56
2023-04-30T22:34:44.374Z,62.33
2023-04-30T22:37:20.457Z,63.08
2023-04-30T22:39:53.269Z,63.44
2023-04-30T22:45:24.811Z,63.18
2023-04-30T22:48:06.124Z,64.34
2023-04-30T22:50:39.003Z,64.10
2023-04-30T22:53:08.991Z,63.88
2023-04-30T22:55:47.659Z,63.73
2023-04-30T22:58:17.746Z,64.19
2023-04-30T23:00:47.709Z,64.33
2023-04-30T23:03:18.907Z,64.53
2023-04-30T23:05:52.972Z,65.46
2023-04-30T23:08:51.242Z,65.71
2023-04-30T23:11:21.718Z,65.36
2023-04-30T23:13:52.787Z,65.85
2023-04-30T23:16:34.664Z,65.64
2023-04-30T23:19:13.031Z,65.42
2023-04-30T23:21:44.412Z,65.72
2023-04-30T23:24:14.949Z,66.14
2023-04-30T23:26:45.769Z,65.98
2023-04-30T23:29:16.499Z,66.05
2023-04-30T23:31:46.498Z,65.86
2023-04-30T23:34:18.034Z,66.21
2023-04-30T23:36:48.733Z,65.50
2023-04-30T23:39:35.933Z,66.03
2023-04-30T23:42:09.177Z,66.16
2023-04-30T23:44:46.930Z,66.08
2023-04-30T23:47:23.222Z,65.87
2023-04-30T23:50:21.793Z,65.67
2023-04-30T23:52:51.716Z,65.55
2023-04-30T23:55:43.317Z,65.64
2023-04-30T23:58:13.972Z,65.41
